sensor_id;sensor_type;location;lat;lon;timestamp;P1;durP1;ratioP1;P2;durP2;ratioP2
7158;SDS011;63175;52.374;13.132;2023-08-21T00:00:46;3.10;;;2.87;;
7158;SDS011;63175;52.374;13.132;2023-08-21T00:03:13;5.43;;;3.20;;
7158;SDS011;63175;52.374;13.132;2023-08-21T00:05:40;4.10;;;3.70;;
7158;SDS011;63175;52.374;13.132;2023-08-21T00:08:06;3.17;;;2.97;;
7158;SDS011;63175;52.374;13.132;2023-08-21T00:10:36;6.80;;;3.07;;
7158;SDS011;63175;52.374;13.132;2023-08-21T00:13:04;5.90;;;3.70;;
7158;SDS011;63175;52.374;13.132;2023-08-21T00:15:32;3.40;;;3.10;;
7158;SDS011;63175;52.374;13.132;2023-08-21T00:18:00;4.00;;;3.53;;
7158;SDS011;63175;52.374;13.132;2023-08-21T00:20:27;3.90;;;3.70;;
7158;SDS011;63175;52.374;13.132;2023-08-21T00:22:54;4.00;;;3.57;;
7158;SDS011;63175;52.374;13.132;2023-08-21T00:25:21;4.00;;;3.63;;
7158;SDS011;63175;52.374;13.132;2023-08-21T00:27:48;4.10;;;3.80;;
7158;SDS011;63175;52.374;13.132;2023-08-21T00:30:15;4.27;;;3.93;;
7158;SDS011;63175;52.374;13.132;2023-08-21T00:32:43;5.00;;;4.30;;
7158;SDS011;63175;52.374;13.132;2023-08-21T00:35:10;4.70;;;4.20;;
7158;SDS011;63175;52.374;13.132;2023-08-21T00:37:37;4.57;;;4.17;;
7158;SDS011;63175;52.374;13.132;2023-08-21T00:40:04;6.83;;;4.70;;
7158;SDS011;63175;52.374;13.132;2023-08-21T00:42:31;4.60;;;4.20;;
7158;SDS011;63175;52.374;13.132;2023-08-21T00:44:58;4.27;;;3.87;;
7158;SDS011;63175;52.374;13.132;2023-08-21T00:47:25;5.30;;;4.90;;
7158;SDS011;63175;52.374;13.132;2023-08-21T00:49:53;5.37;;;4.73;;
7158;SDS011;63175;52.374;13.132;2023-08-21T00:52:21;5.43;;;4.60;;
7158;SDS011;63175;52.374;13.132;2023-08-21T00:54:48;5.00;;;4.67;;
7158;SDS011;63175;52.374;13.132;2023-08-21T00:57:16;6.03;;;5.40;;
7158;SDS011;63175;52.374;13.132;2023-08-21T00:59:43;5.33;;;4.83;;
7158;SDS011;63175;52.374;13.132;2023-08-21T01:02:10;5.73;;;5.23;;
7158;SDS011;63175;52.374;13.132;2023-08-21T01:04:37;6.63;;;6.03;;
7158;SDS011;63175;52.374;13.132;2023-08-21T01:07:06;7.37;;;6.60;;
7158;SDS011;63175;52.374;13.132;2023-08-21T01:09:36;6.13;;;5.60;;
7158;SDS011;63175;52.374;13.132;2023-08-21T01:12:12;6.87;;;6.13;;
7158;SDS011;63175;52.374;13.132;2023-08-21T01:14:50;6.87;;;6.17;;
7158;SDS011;63175;52.374;13.132;2023-08-21T01:17:24;6.50;;;5.90;;
7158;SDS011;63175;52.374;13.132;2023-08-21T01:19:52;7.13;;;6.53;;
7158;SDS011;63175;52.374;13.132;2023-08-21T01:22:21;7.27;;;6.57;;
7158;SDS011;63175;52.374;13.132;2023-08-21T01:24:53;6.37;;;5.87;;
7158;SDS011;63175;52.374;13.132;2023-08-21T01:27:20;6.40;;;5.90;;
7158;SDS011;63175;52.374;13.132;2023-08-21T01:29:47;9.50;;;5.30;;
7158;SDS011;63175;52.374;13.132;2023-08-21T01:32:17;5.97;;;5.37;;
7158;SDS011;63175;52.374;13.132;2023-08-21T01:34:58;7.07;;;6.47;;
7158;SDS011;63175;52.374;13.132;2023-08-21T01:37:26;7.40;;;6.70;;
7158;SDS011;63175;52.374;13.132;2023-08-21T01:39:55;9.07;;;6.30;;
7158;SDS011;63175;52.374;13.132;2023-08-21T01:42:24;6.83;;;6.23;;
7158;SDS011;63175;52.374;13.132;2023-08-21T01:44:51;6.20;;;5.70;;
7158;SDS011;63175;52.374;13.132;2023-08-21T01:47:18;7.60;;;6.90;;
7158;SDS011;63175;52.374;13.132;2023-08-21T01:49:45;8.80;;;6.57;;
7158;SDS011;63175;52.374;13.132;2023-08-21T01:52:11;7.37;;;6.77;;
7158;SDS011;63175;52.374;13.132;2023-08-21T01:54:38;8.20;;;6.93;;
7158;SDS011;63175;52.374;13.132;2023-08-21T01:57:08;7.37;;;6.70;;
7158;SDS011;63175;52.374;13.132;2023-08-21T01:59:35;6.93;;;6.37;;
7158;SDS011;63175;52.374;13.132;2023-08-21T02:02:02;7.57;;;6.87;;
7158;SDS011;63175;52.374;13.132;2023-08-21T02:04:29;7.50;;;6.80;;
7158;SDS011;63175;52.374;13.132;2023-08-21T02:06:56;7.00;;;6.30;;
7158;SDS011;63175;52.374;13.132;2023-08-21T02:09:23;7.10;;;6.40;;
7158;SDS011;63175;52.374;13.132;2023-08-21T02:11:49;7.50;;;6.80;;
7158;SDS011;63175;52.374;13.132;2023-08-21T02:14:18;8.30;;;7.53;;
7158;SDS011;63175;52.374;13.132;2023-08-21T02:16:45;8.80;;;8.03;;
7158;SDS011;63175;52.374;13.132;2023-08-21T02:19:12;6.90;;;6.40;;
7158;SDS011;63175;52.374;13.132;2023-08-21T02:21:39;8.90;;;6.10;;
7158;SDS011;63175;52.374;13.132;2023-08-21T02:24:06;7.73;;;6.97;;
7158;SDS011;63175;52.374;13.132;2023-08-21T02:26:32;7.43;;;6.70;;
7158;SDS011;63175;52.374;13.132;2023-08-21T02:28:59;6.90;;;6.30;;
7158;SDS011;63175;52.374;13.132;2023-08-21T02:31:27;7.73;;;7.03;;
7158;SDS011;63175;52.374;13.132;2023-08-21T02:33:54;6.50;;;6.00;;
7158;SDS011;63175;52.374;13.132;2023-08-21T02:36:21;6.93;;;6.33;;
7158;SDS011;63175;52.374;13.132;2023-08-21T02:38:49;8.00;;;7.30;;
7158;SDS011;63175;52.374;13.132;2023-08-21T02:41:16;6.80;;;6.17;;
7158;SDS011;63175;52.374;13.132;2023-08-21T02:43:43;11.87;;;7.30;;
7158;SDS011;63175;52.374;13.132;2023-08-21T02:46:10;6.53;;;6.03;;
7158;SDS011;63175;52.374;13.132;2023-08-21T02:48:38;6.60;;;6.10;;
7158;SDS011;63175;52.374;13.132;2023-08-21T02:51:05;6.77;;;6.17;;
7158;SDS011;63175;52.374;13.132;2023-08-21T02:53:32;7.00;;;6.40;;
7158;SDS011;63175;52.374;13.132;2023-08-21T02:55:58;8.30;;;7.10;;
7158;SDS011;63175;52.374;13.132;2023-08-21T02:58:25;7.37;;;6.67;;
7158;SDS011;63175;52.374;13.132;2023-08-21T03:00:53;8.40;;;7.30;;
7158;SDS011;63175;52.374;13.132;2023-08-21T03:03:20;7.60;;;6.90;;
7158;SDS011;63175;52.374;13.132;2023-08-21T03:05:48;6.83;;;6.33;;
7158;SDS011;63175;52.374;13.132;2023-08-21T03:08:15;6.50;;;5.90;;
7158;SDS011;63175;52.374;13.132;2023-08-21T03:10:42;6.27;;;5.77;;
7158;SDS011;63175;52.374;13.132;2023-08-21T03:13:08;6.93;;;6.33;;
7158;SDS011;63175;52.374;13.132;2023-08-21T03:15:35;7.50;;;6.77;;
7158;SDS011;63175;52.374;13.132;2023-08-21T03:18:02;7.60;;;6.83;;
7158;SDS011;63175;52.374;13.132;2023-08-21T03:20:29;7.43;;;6.73;;
7158;SDS011;63175;52.374;13.132;2023-08-21T03:22:58;7.97;;;7.23;;
7158;SDS011;63175;52.374;13.132;2023-08-21T03:25:25;7.77;;;7.07;;
7158;SDS011;63175;52.374;13.132;2023-08-21T03:27:51;7.77;;;6.90;;
7158;SDS011;63175;52.374;13.132;2023-08-21T03:30:18;8.53;;;7.73;;
7158;SDS011;63175;52.374;13.132;2023-08-21T03:32:46;8.10;;;7.40;;
7158;SDS011;63175;52.374;13.132;2023-08-21T03:35:13;8.37;;;7.67;;
7158;SDS011;63175;52.374;13.132;2023-08-21T03:37:40;8.23;;;7.50;;
7158;SDS011;63175;52.374;13.132;2023-08-21T03:40:09;9.17;;;8.17;;
7158;SDS011;63175;52.374;13.132;2023-08-21T03:42:36;9.47;;;8.57;;
7158;SDS011;63175;52.374;13.132;2023-08-21T03:45:03;10.63;;;7.70;;
7158;SDS011;63175;52.374;13.132;2023-08-21T03:47:31;8.57;;;7.23;;
7158;SDS011;63175;52.374;13.132;2023-08-21T03:49:57;7.93;;;7.23;;
7158;SDS011;63175;52.374;13.132;2023-08-21T03:52:24;7.73;;;7.13;;
7158;SDS011;63175;52.374;13.132;2023-08-21T03:54:51;8.90;;;7.23;;
7158;SDS011;63175;52.374;13.132;2023-08-21T03:57:19;8.03;;;5.90;;
7158;SDS011;63175;52.374;13.132;2023-08-21T03:59:46;7.80;;;7.10;;
7158;SDS011;63175;52.374;13.132;2023-08-21T04:02:13;6.50;;;5.80;;
7158;SDS011;63175;52.374;13.132;2023-08-21T04:04:40;8.33;;;7.60;;
7158;SDS011;63175;52.374;13.132;2023-08-21T04:07:06;7.53;;;6.83;;
7158;SDS011;63175;52.374;13.132;2023-08-21T04:09:33;7.83;;;7.13;;
7158;SDS011;63175;52.374;13.132;2023-08-21T04:12:00;9.57;;;8.00;;
7158;SDS011;63175;52.374;13.132;2023-08-21T04:14:28;8.17;;;7.47;;
7158;SDS011;63175;52.374;13.132;2023-08-21T04:16:55;8.10;;;7.40;;
7158;SDS011;63175;52.374;13.132;2023-08-21T04:19:22;7.60;;;6.90;;
7158;SDS011;63175;52.374;13.132;2023-08-21T04:21:49;7.43;;;6.87;;
7158;SDS011;63175;52.374;13.132;2023-08-21T04:24:16;7.00;;;6.47;;
7158;SDS011;63175;52.374;13.132;2023-08-21T04:26:43;7.37;;;6.70;;
7158;SDS011;63175;52.374;13.132;2023-08-21T04:29:09;7.47;;;6.40;;
7158;SDS011;63175;52.374;13.132;2023-08-21T04:31:38;6.77;;;6.23;;
7158;SDS011;63175;52.374;13.132;2023-08-21T04:34:04;7.43;;;6.73;;
7158;SDS011;63175;52.374;13.132;2023-08-21T04:36:31;6.80;;;6.10;;
7158;SDS011;63175;52.374;13.132;2023-08-21T04:38:58;5.90;;;5.50;;
7158;SDS011;63175;52.374;13.132;2023-08-21T04:41:25;7.23;;;6.60;;
7158;SDS011;63175;52.374;13.132;2023-08-21T04:43:52;6.80;;;6.30;;
7158;SDS011;63175;52.374;13.132;2023-08-21T04:46:19;6.20;;;5.70;;
7158;SDS011;63175;52.374;13.132;2023-08-21T04:48:47;6.57;;;6.07;;
7158;SDS011;63175;52.374;13.132;2023-08-21T04:51:14;6.20;;;5.70;;
7158;SDS011;63175;52.374;13.132;2023-08-21T04:53:41;6.87;;;6.27;;
7158;SDS011;63175;52.374;13.132;2023-08-21T04:56:08;7.03;;;6.07;;
7158;SDS011;63175;52.374;13.132;2023-08-21T04:58:35;7.43;;;6.83;;
7158;SDS011;63175;52.374;13.132;2023-08-21T05:01:01;7.33;;;6.23;;
7158;SDS011;63175;52.374;13.132;2023-08-21T05:03:30;6.50;;;5.90;;
7158;SDS011;63175;52.374;13.132;2023-08-21T05:05:58;5.70;;;5.30;;
7158;SDS011;63175;52.374;13.132;2023-08-21T05:08:25;6.73;;;6.23;;
7158;SDS011;63175;52.374;13.132;2023-08-21T05:10:55;7.23;;;6.53;;
7158;SDS011;63175;52.374;13.132;2023-08-21T05:13:23;7.83;;;7.13;;
7158;SDS011;63175;52.374;13.132;2023-08-21T05:15:53;9.00;;;6.60;;
7158;SDS011;63175;52.374;13.132;2023-08-21T05:18:21;6.83;;;6.20;;
7158;SDS011;63175;52.374;13.132;2023-08-21T05:20:48;7.27;;;6.67;;
7158;SDS011;63175;52.374;13.132;2023-08-21T05:23:17;6.07;;;5.57;;
7158;SDS011;63175;52.374;13.132;2023-08-21T05:25:44;7.97;;;7.00;;
7158;SDS011;63175;52.374;13.132;2023-08-21T05:28:11;7.47;;;6.77;;
7158;SDS011;63175;52.374;13.132;2023-08-21T05:30:38;8.60;;;7.47;;
7158;SDS011;63175;52.374;13.132;2023-08-21T05:33:05;9.20;;;8.00;;
7158;SDS011;63175;52.374;13.132;2023-08-21T05:35:33;8.00;;;7.20;;
7158;SDS011;63175;52.374;13.132;2023-08-21T05:38:00;8.90;;;7.53;;
7158;SDS011;63175;52.374;13.132;2023-08-21T05:40:29;9.00;;;8.17;;
7158;SDS011;63175;52.374;13.132;2023-08-21T05:42:55;8.77;;;7.63;;
7158;SDS011;63175;52.374;13.132;2023-08-21T05:45:23;8.07;;;7.37;;
7158;SDS011;63175;52.374;13.132;2023-08-21T05:47:49;8.03;;;7.20;;
7158;SDS011;63175;52.374;13.132;2023-08-21T05:50:16;7.90;;;7.20;;
7158;SDS011;63175;52.374;13.132;2023-08-21T05:52:43;8.70;;;7.90;;
7158;SDS011;63175;52.374;13.132;2023-08-21T05:55:10;8.70;;;7.80;;
7158;SDS011;63175;52.374;13.132;2023-08-21T05:57:38;8.70;;;8.00;;
7158;SDS011;63175;52.374;13.132;2023-08-21T06:00:05;8.30;;;7.60;;
7158;SDS011;63175;52.374;13.132;2023-08-21T06:02:34;7.93;;;7.13;;
7158;SDS011;63175;52.374;13.132;2023-08-21T06:05:01;7.10;;;6.60;;
7158;SDS011;63175;52.374;13.132;2023-08-21T06:07:28;7.23;;;6.67;;
7158;SDS011;63175;52.374;13.132;2023-08-21T06:09:55;7.20;;;6.50;;
7158;SDS011;63175;52.374;13.132;2023-08-21T06:12:22;7.23;;;6.70;;
7158;SDS011;63175;52.374;13.132;2023-08-21T06:14:50;7.17;;;6.57;;
7158;SDS011;63175;52.374;13.132;2023-08-21T06:17:17;7.67;;;6.97;;
7158;SDS011;63175;52.374;13.132;2023-08-21T06:19:44;7.53;;;6.83;;
7158;SDS011;63175;52.374;13.132;2023-08-21T06:22:10;7.67;;;6.97;;
7158;SDS011;63175;52.374;13.132;2023-08-21T06:24:37;7.97;;;7.17;;
7158;SDS011;63175;52.374;13.132;2023-08-21T06:27:04;7.07;;;6.57;;
7158;SDS011;63175;52.374;13.132;2023-08-21T06:29:31;7.93;;;7.33;;
7158;SDS011;63175;52.374;13.132;2023-08-21T06:31:59;7.47;;;6.83;;
7158;SDS011;63175;52.374;13.132;2023-08-21T06:34:26;6.77;;;6.20;;
7158;SDS011;63175;52.374;13.132;2023-08-21T06:36:53;8.43;;;7.60;;
7158;SDS011;63175;52.374;13.132;2023-08-21T06:39:19;7.80;;;7.20;;
7158;SDS011;63175;52.374;13.132;2023-08-21T06:41:46;7.77;;;6.77;;
7158;SDS011;63175;52.374;13.132;2023-08-21T06:44:13;6.60;;;6.00;;
7158;SDS011;63175;52.374;13.132;2023-08-21T06:46:40;7.10;;;6.60;;
7158;SDS011;63175;52.374;13.132;2023-08-21T06:49:08;7.57;;;6.80;;
7158;SDS011;63175;52.374;13.132;2023-08-21T06:51:35;7.30;;;6.70;;
7158;SDS011;63175;52.374;13.132;2023-08-21T06:54:02;7.10;;;6.50;;
7158;SDS011;63175;52.374;13.132;2023-08-21T06:56:29;7.20;;;6.53;;
7158;SDS011;63175;52.374;13.132;2023-08-21T06:58:56;6.80;;;6.10;;
7158;SDS011;63175;52.374;13.132;2023-08-21T07:01:22;6.00;;;5.50;;
7158;SDS011;63175;52.374;13.132;2023-08-21T07:03:49;6.20;;;5.70;;
7158;SDS011;63175;52.374;13.132;2023-08-21T07:06:17;6.00;;;5.50;;
7158;SDS011;63175;52.374;13.132;2023-08-21T07:08:44;6.57;;;5.97;;
7158;SDS011;63175;52.374;13.132;2023-08-21T07:11:11;6.07;;;5.53;;
7158;SDS011;63175;52.374;13.132;2023-08-21T07:13:38;6.17;;;5.63;;
7158;SDS011;63175;52.374;13.132;2023-08-21T07:16:05;6.80;;;4.80;;
7158;SDS011;63175;52.374;13.132;2023-08-21T07:18:33;6.30;;;5.60;;
7158;SDS011;63175;52.374;13.132;2023-08-21T07:21:01;5.37;;;4.97;;
7158;SDS011;63175;52.374;13.132;2023-08-21T07:23:30;6.23;;;5.40;;
7158;SDS011;63175;52.374;13.132;2023-08-21T07:25:58;5.00;;;4.50;;
7158;SDS011;63175;52.374;13.132;2023-08-21T07:28:26;4.77;;;4.40;;
7158;SDS011;63175;52.374;13.132;2023-08-21T07:30:56;5.27;;;4.87;;
7158;SDS011;63175;52.374;13.132;2023-08-21T07:33:23;5.13;;;4.63;;
7158;SDS011;63175;52.374;13.132;2023-08-21T07:35:56;4.87;;;4.20;;
7158;SDS011;63175;52.374;13.132;2023-08-21T07:38:23;4.23;;;3.93;;
7158;SDS011;63175;52.374;13.132;2023-08-21T07:41:01;4.10;;;3.80;;
7158;SDS011;63175;52.374;13.132;2023-08-21T07:43:28;3.90;;;3.60;;
7158;SDS011;63175;52.374;13.132;2023-08-21T07:45:55;4.07;;;3.77;;
7158;SDS011;63175;52.374;13.132;2023-08-21T07:48:22;4.07;;;3.77;;
7158;SDS011;63175;52.374;13.132;2023-08-21T07:50:50;3.50;;;3.20;;
7158;SDS011;63175;52.374;13.132;2023-08-21T07:53:18;3.43;;;3.13;;
7158;SDS011;63175;52.374;13.132;2023-08-21T07:55:44;4.00;;;3.17;;
7158;SDS011;63175;52.374;13.132;2023-08-21T07:58:13;3.20;;;3.00;;
7158;SDS011;63175;52.374;13.132;2023-08-21T08:00:40;2.80;;;2.60;;
7158;SDS011;63175;52.374;13.132;2023-08-21T08:03:07;2.77;;;2.57;;
7158;SDS011;63175;52.374;13.132;2023-08-21T08:05:35;4.23;;;3.70;;
7158;SDS011;63175;52.374;13.132;2023-08-21T08:08:03;4.00;;;2.93;;
7158;SDS011;63175;52.374;13.132;2023-08-21T08:10:30;3.17;;;2.90;;
7158;SDS011;63175;52.374;13.132;2023-08-21T08:12:57;3.27;;;3.07;;
7158;SDS011;63175;52.374;13.132;2023-08-21T08:15:25;2.30;;;2.10;;
7158;SDS011;63175;52.374;13.132;2023-08-21T08:17:53;2.60;;;2.40;;
7158;SDS011;63175;52.374;13.132;2023-08-21T08:20:20;2.60;;;2.40;;
7158;SDS011;63175;52.374;13.132;2023-08-21T08:22:47;2.33;;;2.20;;
7158;SDS011;63175;52.374;13.132;2023-08-21T08:25:14;2.30;;;2.17;;
7158;SDS011;63175;52.374;13.132;2023-08-21T08:27:42;2.50;;;2.30;;
7158;SDS011;63175;52.374;13.132;2023-08-21T08:30:09;2.60;;;2.30;;
7158;SDS011;63175;52.374;13.132;2023-08-21T08:32:40;3.03;;;2.83;;
7158;SDS011;63175;52.374;13.132;2023-08-21T08:35:09;2.80;;;2.50;;
7158;SDS011;63175;52.374;13.132;2023-08-21T08:37:36;3.10;;;2.80;;
7158;SDS011;63175;52.374;13.132;2023-08-21T08:40:04;2.60;;;2.33;;
7158;SDS011;63175;52.374;13.132;2023-08-21T08:42:32;2.20;;;1.97;;
7158;SDS011;63175;52.374;13.132;2023-08-21T08:45:01;2.50;;;2.30;;
7158;SDS011;63175;52.374;13.132;2023-08-21T08:47:30;2.30;;;2.10;;
7158;SDS011;63175;52.374;13.132;2023-08-21T08:49:59;2.90;;;2.00;;
7158;SDS011;63175;52.374;13.132;2023-08-21T08:52:29;1.70;;;1.50;;
7158;SDS011;63175;52.374;13.132;2023-08-21T08:55:00;1.90;;;1.57;;
7158;SDS011;63175;52.374;13.132;2023-08-21T08:57:27;1.10;;;1.10;;
7158;SDS011;63175;52.374;13.132;2023-08-21T08:59:54;1.37;;;1.27;;
7158;SDS011;63175;52.374;13.132;2023-08-21T09:02:21;1.77;;;1.37;;
7158;SDS011;63175;52.374;13.132;2023-08-21T09:04:49;1.40;;;1.30;;
7158;SDS011;63175;52.374;13.132;2023-08-21T09:07:17;1.67;;;1.47;;
7158;SDS011;63175;52.374;13.132;2023-08-21T09:09:45;1.80;;;1.70;;
7158;SDS011;63175;52.374;13.132;2023-08-21T09:12:14;1.60;;;1.50;;
7158;SDS011;63175;52.374;13.132;2023-08-21T09:14:41;1.40;;;1.27;;
7158;SDS011;63175;52.374;13.132;2023-08-21T09:17:09;1.60;;;1.50;;
7158;SDS011;63175;52.374;13.132;2023-08-21T09:19:37;1.80;;;1.20;;
7158;SDS011;63175;52.374;13.132;2023-08-21T09:22:07;1.60;;;1.30;;
7158;SDS011;63175;52.374;13.132;2023-08-21T09:24:37;2.70;;;1.20;;
7158;SDS011;63175;52.374;13.132;2023-08-21T09:27:04;1.60;;;0.90;;
7158;SDS011;63175;52.374;13.132;2023-08-21T09:29:38;1.13;;;0.83;;
7158;SDS011;63175;52.374;13.132;2023-08-21T09:32:06;1.33;;;1.00;;
7158;SDS011;63175;52.374;13.132;2023-08-21T09:34:33;2.10;;;0.80;;
7158;SDS011;63175;52.374;13.132;2023-08-21T09:37:01;0.90;;;0.77;;
7158;SDS011;63175;52.374;13.132;2023-08-21T09:39:32;1.43;;;1.00;;
7158;SDS011;63175;52.374;13.132;2023-08-21T09:42:01;1.43;;;0.80;;
7158;SDS011;63175;52.374;13.132;2023-08-21T09:44:34;0.80;;;0.70;;
7158;SDS011;63175;52.374;13.132;2023-08-21T09:47:02;1.03;;;0.80;;
7158;SDS011;63175;52.374;13.132;2023-08-21T09:49:30;1.13;;;0.90;;
7158;SDS011;63175;52.374;13.132;2023-08-21T09:51:59;1.07;;;0.90;;
7158;SDS011;63175;52.374;13.132;2023-08-21T09:54:26;0.70;;;0.70;;
7158;SDS011;63175;52.374;13.132;2023-08-21T09:56:54;1.27;;;1.00;;
7158;SDS011;63175;52.374;13.132;2023-08-21T09:59:23;1.07;;;0.97;;
7158;SDS011;63175;52.374;13.132;2023-08-21T10:01:51;1.07;;;1.00;;
7158;SDS011;63175;52.374;13.132;2023-08-21T10:04:18;1.20;;;1.10;;
7158;SDS011;63175;52.374;13.132;2023-08-21T10:06:48;1.03;;;0.73;;
7158;SDS011;63175;52.374;13.132;2023-08-21T10:09:17;1.27;;;1.17;;
7158;SDS011;63175;52.374;13.132;2023-08-21T10:11:46;0.80;;;0.80;;
7158;SDS011;63175;52.374;13.132;2023-08-21T10:14:14;1.27;;;1.13;;
7158;SDS011;63175;52.374;13.132;2023-08-21T10:16:42;2.20;;;1.20;;
7158;SDS011;63175;52.374;13.132;2023-08-21T10:19:10;1.30;;;0.90;;
7158;SDS011;63175;52.374;13.132;2023-08-21T10:21:40;0.80;;;0.80;;
7158;SDS011;63175;52.374;13.132;2023-08-21T10:24:07;1.53;;;1.20;;
7158;SDS011;63175;52.374;13.132;2023-08-21T10:26:37;1.03;;;0.93;;
7158;SDS011;63175;52.374;13.132;2023-08-21T10:29:05;0.90;;;0.70;;
7158;SDS011;63175;52.374;13.132;2023-08-21T10:31:33;0.80;;;0.60;;
7158;SDS011;63175;52.374;13.132;2023-08-21T10:34:02;1.00;;;0.82;;
7158;SDS011;63175;52.374;13.132;2023-08-21T10:36:37;1.00;;;0.75;;
7158;SDS011;63175;52.374;13.132;2023-08-21T10:39:05;1.08;;;0.98;;
7158;SDS011;63175;52.374;13.132;2023-08-21T10:41:39;0.82;;;0.73;;
7158;SDS011;63175;52.374;13.132;2023-08-21T10:44:06;2.15;;;0.93;;
7158;SDS011;63175;52.374;13.132;2023-08-21T10:49:18;0.70;;;0.70;;
7158;SDS011;63175;52.374;13.132;2023-08-21T10:51:44;1.25;;;0.73;;
7158;SDS011;63175;52.374;13.132;2023-08-21T10:54:12;1.27;;;0.88;;
7158;SDS011;63175;52.374;13.132;2023-08-21T10:56:40;0.88;;;0.80;;
7158;SDS011;63175;52.374;13.132;2023-08-21T10:59:07;0.93;;;0.93;;
7158;SDS011;63175;52.374;13.132;2023-08-21T11:01:42;0.87;;;0.80;;
7158;SDS011;63175;52.374;13.132;2023-08-21T11:04:10;0.80;;;0.70;;
7158;SDS011;63175;52.374;13.132;2023-08-21T11:06:39;1.13;;;0.90;;
7158;SDS011;63175;52.374;13.132;2023-08-21T11:09:12;0.90;;;0.90;;
7158;SDS011;63175;52.374;13.132;2023-08-21T11:11:39;0.63;;;0.63;;
7158;SDS011;63175;52.374;13.132;2023-08-21T11:14:06;1.33;;;1.23;;
7158;SDS011;63175;52.374;13.132;2023-08-21T11:16:32;2.47;;;1.77;;
7158;SDS011;63175;52.374;13.132;2023-08-21T11:19:03;3.00;;;1.40;;
7158;SDS011;63175;52.374;13.132;2023-08-21T11:21:30;0.85;;;0.82;;
7158;SDS011;63175;52.374;13.132;2023-08-21T11:23:58;2.33;;;1.17;;
7158;SDS011;63175;52.374;13.132;2023-08-21T11:26:25;0.63;;;0.63;;
7158;SDS011;63175;52.374;13.132;2023-08-21T11:28:52;1.15;;;0.80;;
7158;SDS011;63175;52.374;13.132;2023-08-21T11:31:21;0.85;;;0.65;;
7158;SDS011;63175;52.374;13.132;2023-08-21T11:33:51;0.82;;;0.70;;
7158;SDS011;63175;52.374;13.132;2023-08-21T11:36:18;3.28;;;0.80;;
7158;SDS011;63175;52.374;13.132;2023-08-21T11:38:58;0.80;;;0.80;;
7158;SDS011;63175;52.374;13.132;2023-08-21T11:41:26;0.82;;;0.70;;
7158;SDS011;63175;52.374;13.132;2023-08-21T11:43:52;0.70;;;0.70;;
7158;SDS011;63175;52.374;13.132;2023-08-21T11:46:23;0.70;;;0.63;;
7158;SDS011;63175;52.374;13.132;2023-08-21T11:48:51;1.13;;;0.80;;
7158;SDS011;63175;52.374;13.132;2023-08-21T11:51:18;0.60;;;0.60;;
7158;SDS011;63175;52.374;13.132;2023-08-21T11:53:46;1.20;;;1.10;;
7158;SDS011;63175;52.374;13.132;2023-08-21T11:56:16;4.67;;;1.10;;
7158;SDS011;63175;52.374;13.132;2023-08-21T11:58:44;2.13;;;0.90;;
7158;SDS011;63175;52.374;13.132;2023-08-21T12:01:15;0.93;;;0.80;;
7158;SDS011;63175;52.374;13.132;2023-08-21T12:03:43;1.10;;;0.83;;
7158;SDS011;63175;52.374;13.132;2023-08-21T12:06:10;2.10;;;1.00;;
7158;SDS011;63175;52.374;13.132;2023-08-21T12:08:38;1.33;;;0.70;;
7158;SDS011;63175;52.374;13.132;2023-08-21T12:11:06;1.13;;;0.90;;
7158;SDS011;63175;52.374;13.132;2023-08-21T12:13:35;2.90;;;1.00;;
7158;SDS011;63175;52.374;13.132;2023-08-21T12:16:01;2.40;;;0.90;;
7158;SDS011;63175;52.374;13.132;2023-08-21T12:18:28;1.73;;;0.70;;
7158;SDS011;63175;52.374;13.132;2023-08-21T12:20:55;0.80;;;0.70;;
7158;SDS011;63175;52.374;13.132;2023-08-21T12:23:22;1.03;;;0.73;;
7158;SDS011;63175;52.374;13.132;2023-08-21T12:25:49;1.40;;;0.97;;
7158;SDS011;63175;52.374;13.132;2023-08-21T12:28:16;1.73;;;0.93;;
7158;SDS011;63175;52.374;13.132;2023-08-21T12:30:44;1.23;;;1.03;;
7158;SDS011;63175;52.374;13.132;2023-08-21T12:33:12;1.27;;;0.83;;
7158;SDS011;63175;52.374;13.132;2023-08-21T12:35:38;1.43;;;1.00;;
7158;SDS011;63175;52.374;13.132;2023-08-21T12:38:10;2.80;;;1.03;;
7158;SDS011;63175;52.374;13.132;2023-08-21T12:40:37;1.10;;;1.00;;
7158;SDS011;63175;52.374;13.132;2023-08-21T12:43:04;1.30;;;0.93;;
7158;SDS011;63175;52.374;13.132;2023-08-21T12:45:31;2.37;;;1.30;;
7158;SDS011;63175;52.374;13.132;2023-08-21T12:47:59;1.40;;;0.90;;
7158;SDS011;63175;52.374;13.132;2023-08-21T12:50:26;1.47;;;0.90;;
7158;SDS011;63175;52.374;13.132;2023-08-21T12:52:53;1.37;;;1.20;;
7158;SDS011;63175;52.374;13.132;2023-08-21T12:55:19;2.33;;;1.30;;
7158;SDS011;63175;52.374;13.132;2023-08-21T12:57:46;1.50;;;1.03;;
7158;SDS011;63175;52.374;13.132;2023-08-21T13:00:13;1.23;;;1.10;;
7158;SDS011;63175;52.374;13.132;2023-08-21T13:02:42;1.53;;;1.07;;
7158;SDS011;63175;52.374;13.132;2023-08-21T13:05:10;3.67;;;0.77;;
7158;SDS011;63175;52.374;13.132;2023-08-21T13:07:37;0.90;;;0.90;;
7158;SDS011;63175;52.374;13.132;2023-08-21T13:10:04;1.20;;;0.90;;
7158;SDS011;63175;52.374;13.132;2023-08-21T13:12:31;1.37;;;0.90;;
7158;SDS011;63175;52.374;13.132;2023-08-21T13:14:58;1.27;;;1.00;;
7158;SDS011;63175;52.374;13.132;2023-08-21T13:17:25;1.40;;;0.77;;
7158;SDS011;63175;52.374;13.132;2023-08-21T13:19:52;1.53;;;0.67;;
7158;SDS011;63175;52.374;13.132;2023-08-21T13:22:20;1.53;;;0.80;;
7158;SDS011;63175;52.374;13.132;2023-08-21T13:24:47;0.87;;;0.67;;
7158;SDS011;63175;52.374;13.132;2023-08-21T13:27:14;0.90;;;0.60;;
7158;SDS011;63175;52.374;13.132;2023-08-21T13:29:41;1.00;;;0.87;;
7158;SDS011;63175;52.374;13.132;2023-08-21T13:32:08;1.00;;;0.70;;
7158;SDS011;63175;52.374;13.132;2023-08-21T13:34:35;0.80;;;0.73;;
7158;SDS011;63175;52.374;13.132;2023-08-21T13:37:02;1.60;;;0.93;;
7158;SDS011;63175;52.374;13.132;2023-08-21T13:39:31;1.37;;;1.10;;
7158;SDS011;63175;52.374;13.132;2023-08-21T13:41:58;1.30;;;0.70;;
7158;SDS011;63175;52.374;13.132;2023-08-21T13:44:25;1.10;;;0.90;;
7158;SDS011;63175;52.374;13.132;2023-08-21T13:46:52;0.80;;;0.63;;
7158;SDS011;63175;52.374;13.132;2023-08-21T13:49:18;1.00;;;0.73;;
7158;SDS011;63175;52.374;13.132;2023-08-21T13:51:45;2.13;;;1.00;;
7158;SDS011;63175;52.374;13.132;2023-08-21T13:54:12;1.80;;;0.80;;
7158;SDS011;63175;52.374;13.132;2023-08-21T13:56:40;0.93;;;0.70;;
7158;SDS011;63175;52.374;13.132;2023-08-21T13:59:07;1.60;;;0.83;;
7158;SDS011;63175;52.374;13.132;2023-08-21T14:01:34;1.60;;;1.07;;
7158;SDS011;63175;52.374;13.132;2023-08-21T14:04:01;1.23;;;0.63;;
7158;SDS011;63175;52.374;13.132;2023-08-21T14:06:28;0.83;;;0.83;;
7158;SDS011;63175;52.374;13.132;2023-08-21T14:08:55;1.00;;;0.70;;
7158;SDS011;63175;52.374;13.132;2023-08-21T14:11:22;2.67;;;0.77;;
7158;SDS011;63175;52.374;13.132;2023-08-21T14:13:50;1.63;;;0.70;;
7158;SDS011;63175;52.374;13.132;2023-08-21T14:16:17;1.33;;;0.70;;
7158;SDS011;63175;52.374;13.132;2023-08-21T14:18:43;1.80;;;0.87;;
7158;SDS011;63175;52.374;13.132;2023-08-21T14:21:10;1.33;;;0.87;;
7158;SDS011;63175;52.374;13.132;2023-08-21T14:23:37;0.60;;;0.60;;
7158;SDS011;63175;52.374;13.132;2023-08-21T14:26:04;1.63;;;1.27;;
7158;SDS011;63175;52.374;13.132;2023-08-21T14:28:32;1.20;;;1.10;;
7158;SDS011;63175;52.374;13.132;2023-08-21T14:31:00;0.93;;;0.93;;
7158;SDS011;63175;52.374;13.132;2023-08-21T14:33:27;2.60;;;1.10;;
7158;SDS011;63175;52.374;13.132;2023-08-21T14:35:54;1.27;;;0.90;;
7158;SDS011;63175;52.374;13.132;2023-08-21T14:38:21;1.00;;;0.70;;
7158;SDS011;63175;52.374;13.132;2023-08-21T14:40:48;1.10;;;0.80;;
7158;SDS011;63175;52.374;13.132;2023-08-21T14:43:17;1.03;;;0.60;;
7158;SDS011;63175;52.374;13.132;2023-08-21T14:45:44;1.60;;;0.97;;
7158;SDS011;63175;52.374;13.132;2023-08-21T14:48:13;1.73;;;1.00;;
7158;SDS011;63175;52.374;13.132;2023-08-21T14:50:39;1.17;;;1.07;;
7158;SDS011;63175;52.374;13.132;2023-08-21T14:53:06;1.30;;;1.17;;